sensor_id;sensor_type;location;lat;lon;timestamp;P1;durP1;ratioP1;P2;durP2;ratioP2
21352;SDS011;10834;52.268;6.770;2024-02-26T00:02:13;10.90;;;8.20;;
21352;SDS011;10834;52.268;6.770;2024-02-26T00:04:58;10.63;;;8.67;;
21352;SDS011;10834;52.268;6.770;2024-02-26T00:07:42;10.27;;;8.37;;
21352;SDS011;10834;52.268;6.770;2024-02-26T00:10:27;10.90;;;7.70;;
21352;SDS011;10834;52.268;6.770;2024-02-26T00:13:11;10.93;;;8.90;;
21352;SDS011;10834;52.268;6.770;2024-02-26T00:15:55;11.83;;;8.63;;
21352;SDS011;10834;52.268;6.770;2024-02-26T00:18:39;10.93;;;8.47;;
21352;SDS011;10834;52.268;6.770;2024-02-26T00:21:24;10.70;;;8.43;;
21352;SDS011;10834;52.268;6.770;2024-02-26T00:24:08;10.67;;;8.10;;
21352;SDS011;10834;52.268;6.770;2024-02-26T00:26:52;10.00;;;8.47;;
21352;SDS011;10834;52.268;6.770;2024-02-26T00:29:38;12.37;;;8.63;;
21352;SDS011;10834;52.268;6.770;2024-02-26T00:32:22;13.53;;;9.47;;
21352;SDS011;10834;52.268;6.770;2024-02-26T00:35:06;9.67;;;8.17;;
21352;SDS011;10834;52.268;6.770;2024-02-26T00:37:53;11.87;;;8.97;;
21352;SDS011;10834;52.268;6.770;2024-02-26T00:40:37;11.00;;;8.50;;
21352;SDS011;10834;52.268;6.770;2024-02-26T00:43:21;10.53;;;8.47;;
21352;SDS011;10834;52.268;6.770;2024-02-26T00:46:05;10.50;;;8.30;;
21352;SDS011;10834;52.268;6.770;2024-02-26T00:48:49;12.83;;;8.43;;
21352;SDS011;10834;52.268;6.770;2024-02-26T00:51:33;11.73;;;7.63;;
21352;SDS011;10834;52.268;6.770;2024-02-26T00:54:18;11.80;;;9.13;;
21352;SDS011;10834;52.268;6.770;2024-02-26T00:57:03;10.53;;;8.37;;
21352;SDS011;10834;52.268;6.770;2024-02-26T00:59:47;10.97;;;8.30;;
21352;SDS011;10834;52.268;6.770;2024-02-26T01:02:32;9.67;;;7.37;;
21352;SDS011;10834;52.268;6.770;2024-02-26T01:05:16;12.37;;;8.63;;
21352;SDS011;10834;52.268;6.770;2024-02-26T01:08:00;9.97;;;7.63;;
21352;SDS011;10834;52.268;6.770;2024-02-26T01:10:44;10.57;;;8.07;;
21352;SDS011;10834;52.268;6.770;2024-02-26T01:13:29;9.07;;;7.90;;
21352;SDS011;10834;52.268;6.770;2024-02-26T01:16:13;10.00;;;7.50;;
21352;SDS011;10834;52.268;6.770;2024-02-26T01:18:57;12.40;;;7.73;;
21352;SDS011;10834;52.268;6.770;2024-02-26T01:21:41;12.80;;;7.67;;
21352;SDS011;10834;52.268;6.770;2024-02-26T01:24:26;10.40;;;8.43;;
21352;SDS011;10834;52.268;6.770;2024-02-26T01:27:10;8.07;;;6.80;;
21352;SDS011;10834;52.268;6.770;2024-02-26T01:29:55;8.97;;;7.27;;
21352;SDS011;10834;52.268;6.770;2024-02-26T01:32:39;9.23;;;7.27;;
21352;SDS011;10834;52.268;6.770;2024-02-26T01:35:23;8.90;;;6.53;;
21352;SDS011;10834;52.268;6.770;2024-02-26T01:38:07;8.20;;;6.83;;
21352;SDS011;10834;52.268;6.770;2024-02-26T01:40:51;7.20;;;6.50;;
21352;SDS011;10834;52.268;6.770;2024-02-26T01:43:35;13.20;;;6.73;;
21352;SDS011;10834;52.268;6.770;2024-02-26T01:46:20;9.83;;;6.30;;
21352;SDS011;10834;52.268;6.770;2024-02-26T01:49:04;7.20;;;6.47;;
21352;SDS011;10834;52.268;6.770;2024-02-26T01:51:49;7.83;;;6.43;;
21352;SDS011;10834;52.268;6.770;2024-02-26T01:54:34;8.93;;;6.20;;
21352;SDS011;10834;52.268;6.770;2024-02-26T01:57:20;7.03;;;6.23;;
21352;SDS011;10834;52.268;6.770;2024-02-26T02:00:04;7.93;;;6.07;;
21352;SDS011;10834;52.268;6.770;2024-02-26T02:02:49;8.20;;;6.10;;
21352;SDS011;10834;52.268;6.770;2024-02-26T02:05:35;8.73;;;6.30;;
21352;SDS011;10834;52.268;6.770;2024-02-26T02:08:25;9.43;;;6.43;;
21352;SDS011;10834;52.268;6.770;2024-02-26T02:11:11;6.40;;;5.70;;
21352;SDS011;10834;52.268;6.770;2024-02-26T02:13:55;6.23;;;5.60;;
21352;SDS011;10834;52.268;6.770;2024-02-26T02:16:40;8.03;;;5.60;;
21352;SDS011;10834;52.268;6.770;2024-02-26T02:19:24;7.90;;;5.20;;
21352;SDS011;10834;52.268;6.770;2024-02-26T02:22:08;5.77;;;5.03;;
21352;SDS011;10834;52.268;6.770;2024-02-26T02:24:52;7.27;;;5.63;;
21352;SDS011;10834;52.268;6.770;2024-02-26T02:27:37;7.43;;;5.77;;
21352;SDS011;10834;52.268;6.770;2024-02-26T02:30:26;5.97;;;5.20;;
21352;SDS011;10834;52.268;6.770;2024-02-26T02:33:13;7.47;;;5.97;;
21352;SDS011;10834;52.268;6.770;2024-02-26T02:35:58;6.00;;;5.27;;
21352;SDS011;10834;52.268;6.770;2024-02-26T02:38:49;7.77;;;5.20;;
21352;SDS011;10834;52.268;6.770;2024-02-26T02:41:35;8.50;;;5.20;;
21352;SDS011;10834;52.268;6.770;2024-02-26T02:44:19;7.30;;;5.30;;
21352;SDS011;10834;52.268;6.770;2024-02-26T02:47:03;5.73;;;5.07;;
21352;SDS011;10834;52.268;6.770;2024-02-26T02:49:48;6.07;;;4.93;;
21352;SDS011;10834;52.268;6.770;2024-02-26T02:52:32;6.80;;;6.00;;
21352;SDS011;10834;52.268;6.770;2024-02-26T02:55:16;7.40;;;4.97;;
21352;SDS011;10834;52.268;6.770;2024-02-26T02:58:01;5.50;;;4.93;;
21352;SDS011;10834;52.268;6.770;2024-02-26T03:00:45;8.77;;;5.27;;
21352;SDS011;10834;52.268;6.770;2024-02-26T03:03:29;6.27;;;5.27;;
21352;SDS011;10834;52.268;6.770;2024-02-26T03:06:14;5.40;;;4.87;;
21352;SDS011;10834;52.268;6.770;2024-02-26T03:08:58;5.43;;;4.93;;
21352;SDS011;10834;52.268;6.770;2024-02-26T03:11:42;6.67;;;5.10;;
21352;SDS011;10834;52.268;6.770;2024-02-26T03:14:27;6.00;;;4.90;;
21352;SDS011;10834;52.268;6.770;2024-02-26T03:17:11;8.40;;;5.03;;
21352;SDS011;10834;52.268;6.770;2024-02-26T03:19:55;7.43;;;5.30;;
21352;SDS011;10834;52.268;6.770;2024-02-26T03:22:39;4.63;;;4.20;;
21352;SDS011;10834;52.268;6.770;2024-02-26T03:25:23;8.40;;;4.27;;
21352;SDS011;10834;52.268;6.770;2024-02-26T03:28:07;5.60;;;4.80;;
21352;SDS011;10834;52.268;6.770;2024-02-26T03:30:51;5.67;;;5.07;;
21352;SDS011;10834;52.268;6.770;2024-02-26T03:33:36;5.03;;;4.53;;
21352;SDS011;10834;52.268;6.770;2024-02-26T03:36:20;6.17;;;4.63;;
21352;SDS011;10834;52.268;6.770;2024-02-26T03:39:08;5.50;;;4.60;;
21352;SDS011;10834;52.268;6.770;2024-02-26T03:41:52;5.73;;;5.10;;
21352;SDS011;10834;52.268;6.770;2024-02-26T03:44:37;6.13;;;4.60;;
21352;SDS011;10834;52.268;6.770;2024-02-26T03:47:22;8.17;;;6.13;;
21352;SDS011;10834;52.268;6.770;2024-02-26T03:50:06;6.07;;;5.13;;
21352;SDS011;10834;52.268;6.770;2024-02-26T03:52:50;7.37;;;6.57;;
21352;SDS011;10834;52.268;6.770;2024-02-26T03:55:35;6.50;;;5.77;;
21352;SDS011;10834;52.268;6.770;2024-02-26T03:58:19;7.50;;;5.63;;
21352;SDS011;10834;52.268;6.770;2024-02-26T04:01:03;7.47;;;6.60;;
21352;SDS011;10834;52.268;6.770;2024-02-26T04:03:48;8.20;;;6.60;;
21352;SDS011;10834;52.268;6.770;2024-02-26T04:06:32;11.00;;;6.63;;
21352;SDS011;10834;52.268;6.770;2024-02-26T04:09:16;9.07;;;6.40;;
21352;SDS011;10834;52.268;6.770;2024-02-26T04:12:00;8.87;;;6.27;;
21352;SDS011;10834;52.268;6.770;2024-02-26T04:14:44;8.73;;;6.77;;
21352;SDS011;10834;52.268;6.770;2024-02-26T04:17:28;10.67;;;7.43;;
21352;SDS011;10834;52.268;6.770;2024-02-26T04:20:13;9.20;;;7.27;;
21352;SDS011;10834;52.268;6.770;2024-02-26T04:22:59;8.00;;;6.50;;
21352;SDS011;10834;52.268;6.770;2024-02-26T04:25:43;8.33;;;6.70;;
21352;SDS011;10834;52.268;6.770;2024-02-26T04:28:27;8.53;;;6.50;;
21352;SDS011;10834;52.268;6.770;2024-02-26T04:31:13;7.70;;;6.07;;
21352;SDS011;10834;52.268;6.770;2024-02-26T04:33:57;8.87;;;6.63;;
21352;SDS011;10834;52.268;6.770;2024-02-26T04:36:41;7.03;;;6.27;;
21352;SDS011;10834;52.268;6.770;2024-02-26T04:39:26;7.90;;;5.90;;
21352;SDS011;10834;52.268;6.770;2024-02-26T04:42:10;6.57;;;5.87;;
21352;SDS011;10834;52.268;6.770;2024-02-26T04:44:54;7.20;;;5.43;;
21352;SDS011;10834;52.268;6.770;2024-02-26T04:47:38;6.43;;;5.50;;
21352;SDS011;10834;52.268;6.770;2024-02-26T04:50:23;6.07;;;5.47;;
21352;SDS011;10834;52.268;6.770;2024-02-26T04:53:06;5.30;;;4.77;;
21352;SDS011;10834;52.268;6.770;2024-02-26T04:55:52;6.43;;;5.70;;
21352;SDS011;10834;52.268;6.770;2024-02-26T04:58:36;5.50;;;4.70;;
21352;SDS011;10834;52.268;6.770;2024-02-26T05:01:20;7.20;;;5.17;;
21352;SDS011;10834;52.268;6.770;2024-02-26T05:04:04;6.20;;;4.90;;
21352;SDS011;10834;52.268;6.770;2024-02-26T05:06:48;7.03;;;4.57;;
21352;SDS011;10834;52.268;6.770;2024-02-26T05:09:32;6.37;;;4.97;;
21352;SDS011;10834;52.268;6.770;2024-02-26T05:12:16;6.17;;;5.10;;
21352;SDS011;10834;52.268;6.770;2024-02-26T05:15:01;5.67;;;4.70;;
21352;SDS011;10834;52.268;6.770;2024-02-26T05:17:46;6.77;;;5.17;;
21352;SDS011;10834;52.268;6.770;2024-02-26T05:20:30;7.70;;;5.00;;
21352;SDS011;10834;52.268;6.770;2024-02-26T05:23:15;6.03;;;5.17;;
21352;SDS011;10834;52.268;6.770;2024-02-26T05:26:00;5.63;;;4.60;;
21352;SDS011;10834;52.268;6.770;2024-02-26T05:28:44;6.30;;;4.67;;
21352;SDS011;10834;52.268;6.770;2024-02-26T05:31:28;6.60;;;5.17;;
21352;SDS011;10834;52.268;6.770;2024-02-26T05:34:13;6.67;;;5.20;;
21352;SDS011;10834;52.268;6.770;2024-02-26T05:36:57;8.70;;;5.60;;
21352;SDS011;10834;52.268;6.770;2024-02-26T05:39:41;7.20;;;5.40;;
21352;SDS011;10834;52.268;6.770;2024-02-26T05:42:25;5.83;;;4.80;;
21352;SDS011;10834;52.268;6.770;2024-02-26T05:45:09;5.60;;;4.87;;
21352;SDS011;10834;52.268;6.770;2024-02-26T05:47:53;5.93;;;4.87;;
21352;SDS011;10834;52.268;6.770;2024-02-26T05:50:37;5.57;;;5.07;;
21352;SDS011;10834;52.268;6.770;2024-02-26T05:53:21;8.10;;;5.30;;
21352;SDS011;10834;52.268;6.770;2024-02-26T05:56:05;6.97;;;5.37;;
21352;SDS011;10834;52.268;6.770;2024-02-26T05:58:50;5.90;;;5.07;;
21352;SDS011;10834;52.268;6.770;2024-02-26T06:01:35;7.77;;;5.23;;
21352;SDS011;10834;52.268;6.770;2024-02-26T06:04:19;6.83;;;4.97;;
21352;SDS011;10834;52.268;6.770;2024-02-26T06:07:03;5.60;;;5.07;;
21352;SDS011;10834;52.268;6.770;2024-02-26T06:09:49;8.10;;;5.40;;
21352;SDS011;10834;52.268;6.770;2024-02-26T06:12:35;6.67;;;5.47;;
21352;SDS011;10834;52.268;6.770;2024-02-26T06:15:19;6.70;;;5.53;;
21352;SDS011;10834;52.268;6.770;2024-02-26T06:18:03;7.53;;;5.73;;
21352;SDS011;10834;52.268;6.770;2024-02-26T06:20:48;6.50;;;5.50;;
21352;SDS011;10834;52.268;6.770;2024-02-26T06:23:32;6.60;;;5.70;;
21352;SDS011;10834;52.268;6.770;2024-02-26T06:26:17;7.33;;;6.43;;
21352;SDS011;10834;52.268;6.770;2024-02-26T06:29:02;7.37;;;6.07;;
21352;SDS011;10834;52.268;6.770;2024-02-26T06:31:46;6.80;;;5.97;;
21352;SDS011;10834;52.268;6.770;2024-02-26T06:34:32;9.33;;;6.93;;
21352;SDS011;10834;52.268;6.770;2024-02-26T06:37:16;9.70;;;6.60;;
21352;SDS011;10834;52.268;6.770;2024-02-26T06:40:00;8.37;;;6.33;;
21352;SDS011;10834;52.268;6.770;2024-02-26T06:42:47;10.03;;;7.20;;
21352;SDS011;10834;52.268;6.770;2024-02-26T06:45:31;7.10;;;6.13;;
21352;SDS011;10834;52.268;6.770;2024-02-26T06:48:16;9.83;;;7.50;;
21352;SDS011;10834;52.268;6.770;2024-02-26T06:51:00;9.03;;;7.57;;
21352;SDS011;10834;52.268;6.770;2024-02-26T06:53:44;10.20;;;7.30;;
21352;SDS011;10834;52.268;6.770;2024-02-26T06:56:28;11.43;;;7.80;;
21352;SDS011;10834;52.268;6.770;2024-02-26T06:59:12;9.57;;;7.47;;
21352;SDS011;10834;52.268;6.770;2024-02-26T07:01:56;12.57;;;8.70;;
21352;SDS011;10834;52.268;6.770;2024-02-26T07:04:40;14.17;;;8.73;;
21352;SDS011;10834;52.268;6.770;2024-02-26T07:07:24;12.73;;;8.77;;
21352;SDS011;10834;52.268;6.770;2024-02-26T07:10:09;13.20;;;8.63;;
21352;SDS011;10834;52.268;6.770;2024-02-26T07:12:55;11.07;;;8.33;;
21352;SDS011;10834;52.268;6.770;2024-02-26T07:15:40;10.60;;;8.20;;
21352;SDS011;10834;52.268;6.770;2024-02-26T07:18:24;12.27;;;9.80;;
21352;SDS011;10834;52.268;6.770;2024-02-26T07:21:08;11.83;;;8.60;;
21352;SDS011;10834;52.268;6.770;2024-02-26T07:23:52;13.20;;;10.23;;
21352;SDS011;10834;52.268;6.770;2024-02-26T07:26:36;12.33;;;9.10;;
21352;SDS011;10834;52.268;6.770;2024-02-26T07:29:21;11.47;;;9.97;;
21352;SDS011;10834;52.268;6.770;2024-02-26T07:32:05;15.97;;;10.30;;
21352;SDS011;10834;52.268;6.770;2024-02-26T07:34:50;13.23;;;10.50;;
21352;SDS011;10834;52.268;6.770;2024-02-26T07:37:34;15.77;;;10.90;;
21352;SDS011;10834;52.268;6.770;2024-02-26T07:40:18;16.27;;;10.47;;
21352;SDS011;10834;52.268;6.770;2024-02-26T07:43:03;16.40;;;11.37;;
21352;SDS011;10834;52.268;6.770;2024-02-26T07:45:47;14.30;;;10.67;;
21352;SDS011;10834;52.268;6.770;2024-02-26T07:48:31;14.70;;;10.93;;
21352;SDS011;10834;52.268;6.770;2024-02-26T07:51:15;15.60;;;10.53;;
21352;SDS011;10834;52.268;6.770;2024-02-26T07:54:00;15.17;;;10.80;;
21352;SDS011;10834;52.268;6.770;2024-02-26T07:56:45;15.90;;;10.80;;
21352;SDS011;10834;52.268;6.770;2024-02-26T07:59:29;15.70;;;9.80;;
21352;SDS011;10834;52.268;6.770;2024-02-26T08:02:14;14.33;;;9.87;;
21352;SDS011;10834;52.268;6.770;2024-02-26T08:04:59;13.07;;;9.50;;
21352;SDS011;10834;52.268;6.770;2024-02-26T08:07:43;13.77;;;9.97;;
21352;SDS011;10834;52.268;6.770;2024-02-26T08:10:27;14.97;;;10.50;;
21352;SDS011;10834;52.268;6.770;2024-02-26T08:13:11;14.07;;;9.87;;
21352;SDS011;10834;52.268;6.770;2024-02-26T08:15:55;14.33;;;9.97;;
21352;SDS011;10834;52.268;6.770;2024-02-26T08:18:39;12.23;;;9.03;;
21352;SDS011;10834;52.268;6.770;2024-02-26T08:21:23;13.20;;;9.47;;
21352;SDS011;10834;52.268;6.770;2024-02-26T08:24:08;18.27;;;10.87;;
21352;SDS011;10834;52.268;6.770;2024-02-26T08:26:52;13.33;;;9.33;;
21352;SDS011;10834;52.268;6.770;2024-02-26T08:29:37;13.73;;;9.43;;
21352;SDS011;10834;52.268;6.770;2024-02-26T08:32:21;12.50;;;9.33;;
21352;SDS011;10834;52.268;6.770;2024-02-26T08:35:05;12.73;;;9.00;;
21352;SDS011;10834;52.268;6.770;2024-02-26T08:37:50;14.70;;;10.07;;
21352;SDS011;10834;52.268;6.770;2024-02-26T08:40:34;14.60;;;9.73;;
21352;SDS011;10834;52.268;6.770;2024-02-26T08:43:19;14.13;;;9.30;;
21352;SDS011;10834;52.268;6.770;2024-02-26T08:46:04;12.67;;;8.73;;
21352;SDS011;10834;52.268;6.770;2024-02-26T08:48:51;13.03;;;9.30;;
21352;SDS011;10834;52.268;6.770;2024-02-26T08:51:40;13.27;;;8.60;;
21352;SDS011;10834;52.268;6.770;2024-02-26T08:54:26;14.20;;;9.00;;
21352;SDS011;10834;52.268;6.770;2024-02-26T08:57:10;13.63;;;9.23;;
21352;SDS011;10834;52.268;6.770;2024-02-26T08:59:54;12.20;;;8.60;;
21352;SDS011;10834;52.268;6.770;2024-02-26T09:02:38;13.40;;;8.60;;
21352;SDS011;10834;52.268;6.770;2024-02-26T09:05:23;13.73;;;9.60;;
21352;SDS011;10834;52.268;6.770;2024-02-26T09:08:07;14.43;;;9.40;;
21352;SDS011;10834;52.268;6.770;2024-02-26T09:10:51;18.30;;;10.40;;
21352;SDS011;10834;52.268;6.770;2024-02-26T09:13:35;13.47;;;9.50;;
21352;SDS011;10834;52.268;6.770;2024-02-26T09:16:19;15.50;;;10.10;;
21352;SDS011;10834;52.268;6.770;2024-02-26T09:19:03;16.93;;;10.27;;
21352;SDS011;10834;52.268;6.770;2024-02-26T09:21:47;15.10;;;10.80;;
21352;SDS011;10834;52.268;6.770;2024-02-26T09:24:31;20.03;;;11.97;;
21352;SDS011;10834;52.268;6.770;2024-02-26T09:27:15;18.07;;;11.70;;
21352;SDS011;10834;52.268;6.770;2024-02-26T09:30:00;19.67;;;13.67;;
21352;SDS011;10834;52.268;6.770;2024-02-26T09:32:45;19.40;;;12.70;;
21352;SDS011;10834;52.268;6.770;2024-02-26T09:35:31;17.57;;;11.13;;
21352;SDS011;10834;52.268;6.770;2024-02-26T09:38:15;21.27;;;12.93;;
21352;SDS011;10834;52.268;6.770;2024-02-26T09:41:00;21.10;;;12.80;;
21352;SDS011;10834;52.268;6.770;2024-02-26T09:43:44;19.67;;;12.50;;
21352;SDS011;10834;52.268;6.770;2024-02-26T09:46:32;21.50;;;12.50;;
21352;SDS011;10834;52.268;6.770;2024-02-26T09:49:21;18.83;;;12.27;;
21352;SDS011;10834;52.268;6.770;2024-02-26T09:52:07;22.73;;;13.13;;
21352;SDS011;10834;52.268;6.770;2024-02-26T09:54:53;23.03;;;13.50;;
21352;SDS011;10834;52.268;6.770;2024-02-26T09:57:38;20.70;;;13.47;;
21352;SDS011;10834;52.268;6.770;2024-02-26T10:00:30;22.17;;;13.33;;
21352;SDS011;10834;52.268;6.770;2024-02-26T10:03:18;24.27;;;14.37;;
21352;SDS011;10834;52.268;6.770;2024-02-26T10:06:08;21.33;;;14.00;;
21352;SDS011;10834;52.268;6.770;2024-02-26T10:08:53;23.73;;;14.73;;
21352;SDS011;10834;52.268;6.770;2024-02-26T10:11:38;26.10;;;14.93;;
21352;SDS011;10834;52.268;6.770;2024-02-26T10:14:26;24.80;;;14.53;;
21352;SDS011;10834;52.268;6.770;2024-02-26T10:17:11;25.43;;;15.53;;
21352;SDS011;10834;52.268;6.770;2024-02-26T10:19:57;23.60;;;14.57;;
21352;SDS011;10834;52.268;6.770;2024-02-26T10:23:04;22.33;;;14.43;;
21352;SDS011;10834;52.268;6.770;2024-02-26T10:25:55;23.10;;;14.47;;
21352;SDS011;10834;52.268;6.770;2024-02-26T10:28:43;23.60;;;15.90;;
21352;SDS011;10834;52.268;6.770;2024-02-26T10:31:29;24.30;;;14.77;;
21352;SDS011;10834;52.268;6.770;2024-02-26T10:34:16;21.03;;;12.53;;
21352;SDS011;10834;52.268;6.770;2024-02-26T10:37:01;21.73;;;13.63;;
21352;SDS011;10834;52.268;6.770;2024-02-26T10:39:46;24.47;;;13.60;;
21352;SDS011;10834;52.268;6.770;2024-02-26T10:42:31;20.20;;;13.60;;
21352;SDS011;10834;52.268;6.770;2024-02-26T10:45:15;19.57;;;11.50;;
21352;SDS011;10834;52.268;6.770;2024-02-26T10:48:00;17.20;;;11.67;;
21352;SDS011;10834;52.268;6.770;2024-02-26T10:50:44;18.20;;;10.83;;
21352;SDS011;10834;52.268;6.770;2024-02-26T10:53:31;15.30;;;10.43;;
21352;SDS011;10834;52.268;6.770;2024-02-26T10:56:17;15.57;;;9.73;;
21352;SDS011;10834;52.268;6.770;2024-02-26T10:59:02;13.87;;;9.23;;
21352;SDS011;10834;52.268;6.770;2024-02-26T11:01:47;15.53;;;9.80;;
21352;SDS011;10834;52.268;6.770;2024-02-26T11:04:33;15.33;;;9.70;;
21352;SDS011;10834;52.268;6.770;2024-02-26T11:07:17;14.30;;;9.40;;
21352;SDS011;10834;52.268;6.770;2024-02-26T11:10:03;14.13;;;8.67;;
21352;SDS011;10834;52.268;6.770;2024-02-26T11:12:51;15.23;;;8.77;;
21352;SDS011;10834;52.268;6.770;2024-02-26T11:15:38;12.17;;;8.03;;
21352;SDS011;10834;52.268;6.770;2024-02-26T11:18:23;12.53;;;8.17;;
21352;SDS011;10834;52.268;6.770;2024-02-26T11:21:11;13.73;;;8.27;;
21352;SDS011;10834;52.268;6.770;2024-02-26T11:23:59;13.90;;;8.33;;
21352;SDS011;10834;52.268;6.770;2024-02-26T11:26:47;12.53;;;7.73;;
21352;SDS011;10834;52.268;6.770;2024-02-26T11:29:39;10.70;;;7.60;;
21352;SDS011;10834;52.268;6.770;2024-02-26T11:32:28;11.90;;;7.53;;
21352;SDS011;10834;52.268;6.770;2024-02-26T11:35:14;11.10;;;8.47;;
21352;SDS011;10834;52.268;6.770;2024-02-26T11:38:01;11.00;;;7.80;;
21352;SDS011;10834;52.268;6.770;2024-02-26T11:40:46;10.63;;;7.30;;
21352;SDS011;10834;52.268;6.770;2024-02-26T11:46:38;9.43;;;7.17;;
21352;SDS011;10834;52.268;6.770;2024-02-26T11:52:12;10.17;;;7.33;;
21352;SDS011;10834;52.268;6.770;2024-02-26T11:54:57;10.20;;;7.17;;
21352;SDS011;10834;52.268;6.770;2024-02-26T11:57:43;10.30;;;7.33;;
21352;SDS011;10834;52.268;6.770;2024-02-26T12:00:27;11.97;;;6.90;;
21352;SDS011;10834;52.268;6.770;2024-02-26T12:03:11;11.67;;;7.60;;
21352;SDS011;10834;52.268;6.770;2024-02-26T12:05:56;9.40;;;6.87;;
21352;SDS011;10834;52.268;6.770;2024-02-26T12:08:41;11.00;;;7.80;;
21352;SDS011;10834;52.268;6.770;2024-02-26T12:11:28;10.37;;;6.60;;
21352;SDS011;10834;52.268;6.770;2024-02-26T12:14:12;12.30;;;7.33;;
21352;SDS011;10834;52.268;6.770;2024-02-26T12:16:56;9.37;;;7.07;;
21352;SDS011;10834;52.268;6.770;2024-02-26T12:19:41;10.43;;;7.13;;
21352;SDS011;10834;52.268;6.770;2024-02-26T12:22:26;8.90;;;6.93;;
21352;SDS011;10834;52.268;6.770;2024-02-26T12:25:11;13.63;;;6.77;;
21352;SDS011;10834;52.268;6.770;2024-02-26T12:27:56;8.57;;;6.50;;
21352;SDS011;10834;52.268;6.770;2024-02-26T12:30:41;10.70;;;7.30;;
21352;SDS011;10834;52.268;6.770;2024-02-26T12:33:25;8.40;;;6.43;;
21352;SDS011;10834;52.268;6.770;2024-02-26T12:36:10;11.90;;;6.77;;
21352;SDS011;10834;52.268;6.770;2024-02-26T12:38:54;10.17;;;6.87;;
21352;SDS011;10834;52.268;6.770;2024-02-26T12:41:39;8.57;;;6.77;;
21352;SDS011;10834;52.268;6.770;2024-02-26T12:44:24;11.30;;;6.90;;
21352;SDS011;10834;52.268;6.770;2024-02-26T12:47:09;10.30;;;6.90;;
21352;SDS011;10834;52.268;6.770;2024-02-26T12:50:00;9.73;;;6.57;;
21352;SDS011;10834;52.268;6.770;2024-02-26T12:52:45;7.47;;;6.10;;
21352;SDS011;10834;52.268;6.770;2024-02-26T12:55:30;10.60;;;6.90;;
21352;SDS011;10834;52.268;6.770;2024-02-26T12:58:18;8.70;;;6.47;;
21352;SDS011;10834;52.268;6.770;2024-02-26T13:01:04;9.57;;;7.00;;
21352;SDS011;10834;52.268;6.770;2024-02-26T13:03:49;12.53;;;7.00;;
21352;SDS011;10834;52.268;6.770;2024-02-26T13:06:35;8.77;;;6.53;;
21352;SDS011;10834;52.268;6.770;2024-02-26T13:09:20;8.63;;;6.50;;
21352;SDS011;10834;52.268;6.770;2024-02-26T13:12:06;9.93;;;7.17;;
21352;SDS011;10834;52.268;6.770;2024-02-26T13:15:03;9.27;;;6.00;;
21352;SDS011;10834;52.268;6.770;2024-02-26T13:17:48;10.97;;;6.63;;
21352;SDS011;10834;52.268;6.770;2024-02-26T13:20:33;7.03;;;5.63;;
21352;SDS011;10834;52.268;6.770;2024-02-26T13:23:17;10.43;;;6.40;;
21352;SDS011;10834;52.268;6.770;2024-02-26T13:26:02;8.33;;;6.37;;
21352;SDS011;10834;52.268;6.770;2024-02-26T13:28:46;8.03;;;6.50;;
21352;SDS011;10834;52.268;6.770;2024-02-26T13:31:30;9.20;;;6.63;;
21352;SDS011;10834;52.268;6.770;2024-02-26T13:37:09;8.83;;;6.20;;
21352;SDS011;10834;52.268;6.770;2024-02-26T13:39:53;11.13;;;6.23;;
21352;SDS011;10834;52.268;6.770;2024-02-26T13:42:37;7.90;;;6.20;;
21352;SDS011;10834;52.268;6.770;2024-02-26T13:45:22;6.57;;;5.67;;
21352;SDS011;10834;52.268;6.770;2024-02-26T13:48:09;8.03;;;6.00;;
21352;SDS011;10834;52.268;6.770;2024-02-26T13:50:54;9.93;;;6.07;;
21352;SDS011;10834;52.268;6.770;2024-02-26T13:53:39;9.20;;;6.57;;
21352;SDS011;10834;52.268;6.770;2024-02-26T13:56:23;10.27;;;6.57;;
21352;SDS011;10834;52.268;6.770;2024-02-26T13:59:07;10.93;;;7.13;;
21352;SDS011;10834;52.268;6.770;2024-02-26T14:01:51;8.23;;;5.90;;
21352;SDS011;10834;52.268;6.770;2024-02-26T14:04:37;9.77;;;5.53;;
21352;SDS011;10834;52.268;6.770;2024-02-26T14:07:22;8.30;;;6.13;;
21352;SDS011;10834;52.268;6.770;2024-02-26T14:10:06;10.50;;;7.33;;
21352;SDS011;10834;52.268;6.770;2024-02-26T14:12:52;11.07;;;6.63;;
21352;SDS011;10834;52.268;6.770;2024-02-26T14:15:36;7.93;;;6.17;;
21352;SDS011;10834;52.268;6.770;2024-02-26T14:18:22;9.10;;;6.60;;
21352;SDS011;10834;52.268;6.770;2024-02-26T14:21:06;9.23;;;6.33;;
21352;SDS011;10834;52.268;6.770;2024-02-26T14:23:51;8.23;;;5.83;;
21352;SDS011;10834;52.268;6.770;2024-02-26T14:26:35;9.20;;;6.33;;
21352;SDS011;10834;52.268;6.770;2024-02-26T14:29:19;8.73;;;6.40;;
21352;SDS011;10834;52.268;6.770;2024-02-26T14:32:03;7.87;;;6.10;;
21352;SDS011;10834;52.268;6.770;2024-02-26T14:34:47;8.00;;;6.30;;
21352;SDS011;10834;52.268;6.770;2024-02-26T14:37:31;8.47;;;6.30;;
21352;SDS011;10834;52.268;6.770;2024-02-26T14:40:16;9.00;;;6.40;;
21352;SDS011;10834;52.268;6.770;2024-02-26T14:43:00;9.17;;;6.53;;
21352;SDS011;10834;52.268;6.770;2024-02-26T14:45:44;9.27;;;6.50;;
21352;SDS011;10834;52.268;6.770;2024-02-26T14:48:29;9.23;;;6.30;;
21352;SDS011;10834;52.268;6.770;2024-02-26T14:51:15;8.30;;;6.73;;
21352;SDS011;10834;52.268;6.770;2024-02-26T14:53:59;10.03;;;7.03;;
21352;SDS011;10834;52.268;6.770;2024-02-26T14:56:45;11.37;;;6.77;;
21352;SDS011;10834;52.268;6.770;2024-02-26T14:59:30;8.37;;;5.90;;
21352;SDS011;10834;52.268;6.770;2024-02-26T15:02:14;7.97;;;6.27;;
21352;SDS011;10834;52.268;6.770;2024-02-26T15:04:59;11.40;;;7.00;;
21352;SDS011;10834;52.268;6.770;2024-02-26T15:07:43;8.63;;;6.70;;
21352;SDS011;10834;52.268;6.770;2024-02-26T15:10:28;8.40;;;6.60;;
21352;SDS011;10834;52.268;6.770;2024-02-26T15:13:12;10.80;;;7.27;;
21352;SDS011;10834;52.268;6.770;2024-02-26T15:15:57;9.40;;;6.47;;
21352;SDS011;10834;52.268;6.770;2024-02-26T15:18:41;8.93;;;6.90;;
21352;SDS011;10834;52.268;6.770;2024-02-26T15:21:25;9.23;;;6.23;;
21352;SDS011;10834;52.268;6.770;2024-02-26T15:24:10;14.83;;;7.10;;
21352;SDS011;10834;52.268;6.770;2024-02-26T15:26:55;9.87;;;7.10;;
21352;SDS011;10834;52.268;6.770;2024-02-26T15:29:40;10.47;;;6.37;;
21352;SDS011;10834;52.268;6.770;2024-02-26T15:32:24;9.93;;;6.80;;
21352;SDS011;10834;52.268;6.770;2024-02-26T15:35:09;10.13;;;6.90;;
21352;SDS011;10834;52.268;6.770;2024-02-26T15:37:54;9.97;;;6.53;;
21352;SDS011;10834;52.268;6.770;2024-02-26T15:40:38;9.47;;;6.83;;
21352;SDS011;10834;52.268;6.770;2024-02-26T15:43:23;10.23;;;6.53;;
21352;SDS011;10834;52.268;6.770;2024-02-26T15:46:07;8.93;;;6.23;;
21352;SDS011;10834;52.268;6.770;2024-02-26T15:48:51;9.73;;;6.77;;
21352;SDS011;10834;52.268;6.770;2024-02-26T15:51:36;9.73;;;7.60;;
21352;SDS011;10834;52.268;6.770;2024-02-26T15:54:20;10.37;;;6.83;;
21352;SDS011;10834;52.268;6.770;2024-02-26T15:57:04;9.43;;;6.73;;
21352;SDS011;10834;52.268;6.770;2024-02-26T15:59:48;9.27;;;7.00;;
21352;SDS011;10834;52.268;6.770;2024-02-26T16:02:34;10.37;;;7.20;;
21352;SDS011;10834;52.268;6.770;2024-02-26T16:05:18;9.03;;;6.80;;
21352;SDS011;10834;52.268;6.770;2024-02-26T16:08:21;11.10;;;6.53;;
21352;SDS011;10834;52.268;6.770;2024-02-26T16:11:06;9.80;;;6.83;;
21352;SDS011;10834;52.268;6.770;2024-02-26T16:13:50;10.17;;;7.43;;
21352;SDS011;10834;52.268;6.770;2024-02-26T16:16:47;8.83;;;7.10;;
21352;SDS011;10834;52.268;6.770;2024-02-26T16:19:36;9.43;;;7.67;;
21352;SDS011;10834;52.268;6.770;2024-02-26T16:22:21;11.33;;;9.10;;
21352;SDS011;10834;52.268;6.770;2024-02-26T16:25:05;11.97;;;8.27;;
21352;SDS011;10834;52.268;6.770;2024-02-26T16:27:50;12.23;;;7.80;;
21352;SDS011;10834;52.268;6.770;2024-02-26T16:30:34;10.40;;;7.77;;
21352;SDS011;10834;52.268;6.770;2024-02-26T16:33:18;9.37;;;7.93;;